createdAt,value
2022-11-14T00:03:33.279Z,8.62
2022-11-14T00:08:56.150Z,8.60
2022-11-14T00:14:23.820Z,8.59
2022-11-14T00:19:50.757Z,8.55
2022-11-14T00:25:13.398Z,8.54
2022-11-14T00:30:38.786Z,8.52
2022-11-14T00:36:02.558Z,8.53
2022-11-14T00:41:25.579Z,8.50
2022-11-14T00:46:49.984Z,8.47
2022-11-14T00:52:12.954Z,8.45
2022-11-14T00:57:37.917Z,8.45
2022-11-14T01:03:10.571Z,8.42
2022-11-14T01:08:32.820Z,8.41
2022-11-14T01:13:55.693Z,8.40
2022-11-14T01:19:26.848Z,8.39
2022-11-14T01:24:51.404Z,8.37
2022-11-14T01:30:20.969Z,8.36
2022-11-14T01:35:41.466Z,8.32
2022-11-14T01:41:08.784Z,8.32
2022-11-14T01:46:36.185Z,8.29
2022-11-14T01:52:54.180Z,8.24
2022-11-14T01:58:19.161Z,8.21
2022-11-14T02:03:44.697Z,8.17
2022-11-14T02:09:09.237Z,8.17
2022-11-14T02:14:32.625Z,8.16
2022-11-14T02:20:17.595Z,8.13
2022-11-14T02:25:41.315Z,8.11
2022-11-14T02:31:07.273Z,8.09
2022-11-14T02:36:33.267Z,8.06
2022-11-14T02:41:53.672Z,8.05
2022-11-14T02:47:16.277Z,8.04
2022-11-14T02:52:43.069Z,8.04
2022-11-14T02:58:06.075Z,8.02
2022-11-14T03:09:21.982Z,8.05
2022-11-14T03:14:42.244Z,8.03
2022-11-14T03:20:10.476Z,8.06
2022-11-14T03:25:31.978Z,8.09
2022-11-14T03:30:57.636Z,8.11
2022-11-14T03:36:20.552Z,8.13
2022-11-14T03:41:48.710Z,8.16
2022-11-14T03:47:14.884Z,8.18
2022-11-14T03:52:36.515Z,8.21
2022-11-14T03:58:01.556Z,8.24
2022-11-14T04:03:27.541Z,8.27
2022-11-14T04:08:56.045Z,8.25
2022-11-14T04:14:22.752Z,8.28
2022-11-14T04:19:44.623Z,8.30
2022-11-14T04:25:10.174Z,8.34
2022-11-14T04:30:37.597Z,8.36
2022-11-14T04:35:57.652Z,8.39
2022-11-14T04:41:25.257Z,8.40
2022-11-14T04:46:48.586Z,8.44
2022-11-14T04:52:16.307Z,8.49
2022-11-14T04:57:36.356Z,8.50
2022-11-14T05:02:58.770Z,8.53
2022-11-14T05:08:21.995Z,8.53
2022-11-14T05:13:47.622Z,8.54
2022-11-14T05:19:10.307Z,8.55
2022-11-14T05:24:32.830Z,8.54
2022-11-14T05:29:58.855Z,8.55
2022-11-14T05:35:26.647Z,8.56
2022-11-14T05:40:57.559Z,8.55
2022-11-14T05:46:17.822Z,8.52
2022-11-14T05:51:40.114Z,8.52
2022-11-14T05:57:06.917Z,8.51
2022-11-14T06:02:32.464Z,8.52
2022-11-14T06:07:58.855Z,8.52
2022-11-14T06:13:24.168Z,8.52
2022-11-14T06:18:47.451Z,8.53
2022-11-14T06:24:10.263Z,8.55
2022-11-14T06:29:39.131Z,8.54
2022-11-14T06:34:59.283Z,8.53
2022-11-14T06:40:22.182Z,8.53
2022-11-14T06:45:42.406Z,8.53
2022-11-14T06:51:13.575Z,8.55
2022-11-14T06:56:36.909Z,8.57
2022-11-14T07:01:58.098Z,8.59
2022-11-14T07:07:21.204Z,8.61
2022-11-14T07:12:44.901Z,8.63
2022-11-14T07:18:07.762Z,8.67
2022-11-14T07:23:31.298Z,8.73
2022-11-14T07:28:59.199Z,8.80
2022-11-14T07:34:24.480Z,8.88
2022-11-14T07:39:45.961Z,8.96
2022-11-14T07:45:08.242Z,9.03
2022-11-14T07:50:40.414Z,9.11
2022-11-14T07:56:13.246Z,9.20
2022-11-14T08:01:37.311Z,9.28
2022-11-14T08:06:57.671Z,9.38
2022-11-14T08:12:17.567Z,9.50
2022-11-14T08:17:40.165Z,9.61
2022-11-14T08:23:07.493Z,9.70
2022-11-14T08:28:31.728Z,9.81
2022-11-14T08:33:54.625Z,9.93
2022-11-14T08:39:17.091Z,10.07
2022-11-14T08:44:40.670Z,10.18
2022-11-14T08:50:06.064Z,10.29
2022-11-14T08:55:31.392Z,10.38
2022-11-14T09:00:55.546Z,10.50
2022-11-14T09:06:15.643Z,10.61
2022-11-14T09:11:38.714Z,10.71
2022-11-14T09:17:04.574Z,10.79
2022-11-14T09:22:29.007Z,10.89
2022-11-14T09:27:59.517Z,10.98
2022-11-14T09:33:21.324Z,11.07
2022-11-14T09:38:52.172Z,11.17
2022-11-14T09:44:52.972Z,11.25
2022-11-14T09:50:26.062Z,11.35
2022-11-14T09:55:48.551Z,11.47
2022-11-14T10:01:36.504Z,11.60
2022-11-14T10:07:19.550Z,11.73
2022-11-14T10:13:04.396Z,11.84
2022-11-14T10:18:43.547Z,11.96
2022-11-14T10:24:16.425Z,12.07
2022-11-14T10:29:55.182Z,12.21
2022-11-14T10:35:22.949Z,12.37
2022-11-14T10:40:48.397Z,12.49
2022-11-14T10:46:24.719Z,12.64
2022-11-14T10:51:52.447Z,12.83
2022-11-14T10:57:19.205Z,12.99
2022-11-14T11:03:18.568Z,13.15
2022-11-14T11:09:00.761Z,13.28
2022-11-14T11:14:25.955Z,13.43
2022-11-14T11:19:52.366Z,13.55
2022-11-14T11:25:30.493Z,13.69
2022-11-14T11:31:01.511Z,13.81
2022-11-14T11:36:28.882Z,13.95
2022-11-14T11:42:08.691Z,14.09
2022-11-14T11:47:36.684Z,14.21
2022-11-14T11:53:05.987Z,14.34
2022-11-14T11:58:32.175Z,14.47
2022-11-14T12:04:01.518Z,14.58
2022-11-14T12:09:48.787Z,14.66
2022-11-14T12:15:35.008Z,14.69
2022-11-14T12:21:11.345Z,14.62
2022-11-14T12:27:05.011Z,14.54
2022-11-14T12:32:46.890Z,14.45
2022-11-14T12:38:16.939Z,14.40
2022-11-14T12:43:47.512Z,14.45
2022-11-14T12:49:59.584Z,14.57
2022-11-14T12:55:22.636Z,14.59
2022-11-14T13:00:48.543Z,14.59
2022-11-14T13:06:54.421Z,14.61
2022-11-14T13:12:50.904Z,14.61
2022-11-14T13:18:46.750Z,14.60
2022-11-14T13:24:13.402Z,14.61
2022-11-14T13:29:43.505Z,14.65
2022-11-14T13:35:07.083Z,14.71
2022-11-14T13:40:38.930Z,14.78
2022-11-14T13:46:32.617Z,14.88
2022-11-14T13:51:57.115Z,14.98
2022-11-14T13:57:45.890Z,15.01
2022-11-14T14:03:47.426Z,15.05
2022-11-14T14:09:37.578Z,15.15
2022-11-14T14:15:48.068Z,15.31
2022-11-14T14:21:23.567Z,15.46
2022-11-14T14:27:18.046Z,15.53
2022-11-14T14:32:45.149Z,15.59
2022-11-14T14:38:21.548Z,15.65
2022-11-14T14:43:43.905Z,15.73
2022-11-14T14:49:08.887Z,15.73
2022-11-14T14:54:38.566Z,15.76
2022-11-14T15:00:21.688Z,15.78
2022-11-14T15:05:44.732Z,15.72
2022-11-14T15:11:07.888Z,15.61
2022-11-14T15:16:31.722Z,15.45
2022-11-14T15:22:25.977Z,15.23
2022-11-14T15:27:55.931Z,15.01
2022-11-14T15:33:28.262Z,14.81
2022-11-14T15:39:23.455Z,14.63
2022-11-14T15:44:55.057Z,14.48
2022-11-14T15:50:19.853Z,14.36
2022-11-14T15:55:43.003Z,14.22
2022-11-14T16:01:10.461Z,14.07
2022-11-14T16:06:42.101Z,13.94
2022-11-14T16:12:08.505Z,13.84
2022-11-14T16:17:37.084Z,13.76
2022-11-14T16:23:01.905Z,13.58
2022-11-14T16:28:26.257Z,13.48
2022-11-14T16:33:46.794Z,13.39
2022-11-14T16:39:11.354Z,13.30
2022-11-14T16:44:41.186Z,13.21
2022-11-14T16:50:07.494Z,13.14
2022-11-14T16:55:27.821Z,13.06
2022-11-14T17:00:54.372Z,13.00
2022-11-14T17:06:34.599Z,12.93
2022-11-14T17:11:54.934Z,12.88
2022-11-14T17:17:19.727Z,12.82
2022-11-14T17:22:49.034Z,12.77
2022-11-14T17:28:12.304Z,12.71
2022-11-14T17:33:34.171Z,12.65
2022-11-14T17:38:59.669Z,12.58
2022-11-14T17:44:25.001Z,12.52
2022-11-14T17:55:24.577Z,12.38
2022-11-14T18:00:49.305Z,12.31
2022-11-14T18:06:16.039Z,12.25
2022-11-14T18:11:40.727Z,12.18
2022-11-14T18:17:13.370Z,12.13
2022-11-14T18:22:37.039Z,12.09
2022-11-14T18:27:57.406Z,12.03
2022-11-14T18:33:17.575Z,11.98
2022-11-14T18:38:45.621Z,11.96
2022-11-14T18:44:13.423Z,11.92
2022-11-14T18:49:38.467Z,11.90
2022-11-14T18:55:04.359Z,11.87
2022-11-14T19:00:29.959Z,11.85
2022-11-14T19:05:49.998Z,11.79
2022-11-14T19:11:31.216Z,11.75
2022-11-14T19:16:53.019Z,11.71
2022-11-14T19:22:18.933Z,11.66
2022-11-14T19:27:50.918Z,11.60
2022-11-14T19:33:13.462Z,11.55
2022-11-14T19:38:33.899Z,11.46
2022-11-14T19:44:01.783Z,11.41
2022-11-14T19:49:23.513Z,11.38
2022-11-14T19:54:43.970Z,11.37
2022-11-14T20:00:04.829Z,11.35
2022-11-14T20:05:27.495Z,11.35
2022-11-14T20:11:08.810Z,11.34
2022-11-14T20:16:37.290Z,11.34
2022-11-14T20:22:01.121Z,11.32
2022-11-14T20:27:26.662Z,11.33
2022-11-14T20:32:50.956Z,11.34
2022-11-14T20:38:19.656Z,11.34
2022-11-14T20:43:54.058Z,11.32
2022-11-14T20:49:16.993Z,11.29
2022-11-14T20:54:47.188Z,11.26
2022-11-14T21:00:10.600Z,11.23
2022-11-14T21:05:39.709Z,11.16
2022-11-14T21:11:14.980Z,11.14
2022-11-14T21:16:40.623Z,11.12
2022-11-14T21:22:09.317Z,11.11
2022-11-14T21:27:35.066Z,11.10
2022-11-14T21:32:57.458Z,11.07
2022-11-14T21:38:19.980Z,11.05
2022-11-14T21:43:43.577Z,11.03
2022-11-14T21:49:11.305Z,11.02
2022-11-14T21:54:33.905Z,11.02
2022-11-14T21:59:58.147Z,10.98
2022-11-14T22:05:28.923Z,10.94
2022-11-14T22:10:50.506Z,10.86
2022-11-14T22:16:17.244Z,10.79
2022-11-14T22:21:37.744Z,10.75
2022-11-14T22:27:05.627Z,10.71
2022-11-14T22:32:28.880Z,10.68
2022-11-14T22:37:51.242Z,10.65
2022-11-14T22:43:23.449Z,10.63
2022-11-14T22:48:47.737Z,10.64
2022-11-14T22:54:24.899Z,10.62
2022-11-14T22:59:54.961Z,10.61
2022-11-14T23:05:15.012Z,10.61
2022-11-14T23:10:40.002Z,10.60
2022-11-14T23:16:03.271Z,10.61
2022-11-14T23:21:29.104Z,10.61
2022-11-14T23:26:52.139Z,10.60
2022-11-14T23:32:12.292Z,10.60
2022-11-14T23:37:37.270Z,10.57
2022-11-14T23:42:57.610Z,10.54
2022-11-14T23:48:33.722Z,10.51
2022-11-14T23:53:55.555Z,10.49
2022-11-14T23:59:15.797Z,10.46
